Time;durP1;ratioP1;P1;durP2;ratioP2;P2;SDS_P1;SDS_P2;PMS_P1;PMS_P2;Temp;Humidity;BMP_temperature;BMP_pressure;BME280_temperature;BME280_humidity;BME280_pressure;Samples;Min_cycle;Max_cycle;Signal;HPM_P1;HPM_P2
2023/04/26 00:00:47;;;;;;;12.77;2.72;;;;;;;-146.25;100.00;52272.91;2081386;28;20862;-70
2023/04/26 00:01:48;;;;;;;5.85;2.10;;;;;;;-146.25;100.00;52291.16;2081022;28;20407;-69
2023/04/26 00:02:50;;;;;;;11.82;3.30;;;;;;;-146.25;100.00;52303.31;2080871;28;37757;-69
2023/04/26 00:03:52;;;;;;;10.07;2.65;;;;;;;-146.25;100.00;52283.03;2081311;28;20046;-70
2023/04/26 00:04:54;;;;;;;7.13;2.10;;;;;;;-146.25;100.00;52274.94;2080760;28;35417;-69
2023/04/26 00:06:02;;;;;;;10.23;2.53;;;;;;;-146.25;100.00;52276.97;2080678;28;38118;-70
2023/04/26 00:07:05;;;;;;;7.47;2.00;;;;;;;-146.25;100.00;52270.88;2089081;28;32566;-69
2023/04/26 00:08:08;;;;;;;9.43;2.50;;;;;;;-146.25;100.00;52337.78;2087055;28;38316;-69
2023/04/26 00:09:09;;;;;;;8.93;2.47;;;;;;;-146.25;100.00;52250.59;2080399;28;35094;-70
2023/04/26 00:10:11;;;;;;;7.65;2.58;;;;;;;-146.25;100.00;52291.16;2080530;28;34502;-69
2023/04/26 00:11:13;;;;;;;7.40;2.53;;;;;;;-146.25;100.00;52301.28;2080824;28;38066;-70
2023/04/26 00:12:15;;;;;;;10.90;2.55;;;;;;;-146.25;100.00;52323.59;2080422;28;33631;-69
2023/04/26 00:13:17;;;;;;;10.82;2.67;;;;;;;-146.25;100.00;52293.19;2080510;28;34831;-69
2023/04/26 00:14:18;;;;;;;18.17;3.35;;;;;;;-146.25;100.00;52321.56;2081345;28;20042;-69
2023/04/26 00:15:20;;;;;;;12.02;3.33;;;;;;;-146.25;100.00;52333.72;2088286;28;37497;-70
2023/04/26 00:16:22;;;;;;;9.43;3.10;;;;;;;-146.25;100.00;52309.41;2088003;28;34917;-69
2023/04/26 00:17:24;;;;;;;9.75;2.63;;;;;;;-146.25;100.00;52301.28;2080738;28;34403;-70
2023/04/26 00:18:26;;;;;;;12.15;2.63;;;;;;;-146.25;100.00;52258.72;2080501;28;34339;-71
2023/04/26 00:19:27;;;;;;;11.73;2.75;;;;;;;-146.25;100.00;52270.88;2081090;28;33833;-72
2023/04/26 00:20:31;;;;;;;12.00;2.97;;;;;;;-146.25;100.00;52319.53;2080395;28;34172;-72
2023/04/26 00:21:33;;;;;;;9.02;2.67;;;;;;;-146.25;100.00;52323.59;2080518;28;36965;-73
2023/04/26 00:22:34;;;;;;;11.35;2.78;;;;;;;-146.25;100.00;52303.31;2088274;28;32621;-73
2023/04/26 00:23:36;;;;;;;12.02;2.70;;;;;;;-146.25;100.00;52303.31;2088220;28;34176;-72
2023/04/26 00:24:38;;;;;;;9.88;2.60;;;;;;;-146.25;100.00;52309.41;2080430;28;32871;-72
2023/04/26 00:25:40;;;;;;;12.02;3.10;;;;;;;-146.25;100.00;52297.22;2080804;28;33849;-72
2023/04/26 00:26:42;;;;;;;14.18;3.20;;;;;;;-146.25;100.00;52283.03;2088180;28;35643;-72
2023/04/26 00:27:44;;;;;;;12.05;3.13;;;;;;;-146.25;100.00;52315.47;2088479;28;20049;-72
2023/04/26 00:28:46;;;;;;;8.30;2.47;;;;;;;-146.25;100.00;52281.00;2080756;28;29057;-72
2023/04/26 00:29:48;;;;;;;5.03;2.45;;;;;;;-146.25;100.00;52287.09;2080826;28;25746;-71
2023/04/26 00:30:50;;;;;;;13.45;2.72;;;;;;;-146.25;100.00;52297.22;2079779;28;32296;-72
2023/04/26 00:31:52;;;;;;;8.82;2.88;;;;;;;-146.25;100.00;52299.25;2081453;28;20049;-71
2023/04/26 00:32:54;;;;;;;8.68;2.75;;;;;;;-146.25;100.00;52319.53;2079863;28;29343;-71
2023/04/26 00:33:56;;;;;;;12.32;3.13;;;;;;;-146.25;100.00;52287.09;2080339;28;25882;-71
2023/04/26 00:34:58;;;;;;;8.23;3.33;;;;;;;-146.25;100.00;52291.16;2088099;28;31920;-71
2023/04/26 00:36:00;;;;;;;9.95;3.25;;;;;;;-146.25;100.00;52291.16;2081109;28;20050;-71
2023/04/26 00:37:05;;;;;;;7.43;3.20;;;;;;;-146.25;100.00;52333.72;2081215;28;20163;-70
2023/04/26 00:38:07;;;;;;;10.15;3.33;;;;;;;-146.25;100.00;52331.69;2081137;28;20038;-71
2023/04/26 00:39:09;;;;;;;11.85;3.58;;;;;;;-146.25;100.00;52297.22;2079918;28;22796;-71
2023/04/26 00:40:12;;;;;;;10.77;3.00;;;;;;;-146.25;100.00;52323.59;2080280;28;27141;-71
2023/04/26 00:41:14;;;;;;;13.90;3.35;;;;;;;-146.25;100.00;52307.38;2087804;28;33263;-71
2023/04/26 00:42:15;;;;;;;10.63;3.42;;;;;;;-146.25;100.00;52323.59;2088062;28;25935;-71
2023/04/26 00:43:17;;;;;;;11.38;3.53;;;;;;;-146.25;100.00;52295.19;2071572;28;25384;-71
2023/04/26 00:44:19;;;;;;;12.10;3.22;;;;;;;-146.25;100.00;52307.38;2080267;28;28819;-71
2023/04/26 00:45:21;;;;;;;10.95;2.97;;;;;;;-146.25;100.00;52285.06;2080161;28;21630;-71
2023/04/26 00:46:23;;;;;;;12.23;3.33;;;;;;;-146.25;100.00;52297.22;2080571;28;20467;-70
2023/04/26 00:47:28;;;;;;;10.60;3.70;;;;;;;-146.25;100.00;52311.44;2079705;28;20124;-71
2023/04/26 00:48:30;;;;;;;11.32;3.30;;;;;;;-146.25;100.00;52283.03;2072403;28;26695;-69
2023/04/26 00:49:32;;;;;;;8.80;3.60;;;;;;;-146.25;100.00;52331.69;2079792;28;23754;-71
2023/04/26 00:50:33;;;;;;;15.70;3.58;;;;;;;-146.25;100.00;52331.69;2088720;28;20045;-70
2023/04/26 00:51:36;;;;;;;13.07;3.35;;;;;;;-146.25;100.00;52297.22;2079721;28;29831;-71
2023/04/26 00:52:38;;;;;;;11.07;3.22;;;;;;;-146.25;100.00;52295.19;2080606;28;20792;-71
2023/04/26 00:53:41;;;;;;;11.73;3.47;;;;;;;-146.25;100.00;52268.84;2079669;28;32921;-70
2023/04/26 00:54:47;;;;;;;16.23;3.80;;;;;;;-146.25;100.00;52329.66;2073080;28;20749;-70
2023/04/26 00:55:50;;;;;;;14.85;4.05;;;;;;;-146.25;100.00;52291.16;2080911;28;21056;-71
2023/04/26 00:56:53;;;;;;;9.07;3.60;;;;;;;-146.25;100.00;52293.19;2079977;28;32541;-70
2023/04/26 00:57:56;;;;;;;17.38;3.65;;;;;;;-146.25;100.00;52299.25;2079543;28;20046;-71
2023/04/26 00:58:58;;;;;;;10.95;3.53;;;;;;;-146.25;100.00;52295.19;2079920;28;29704;-71
2023/04/26 01:00:00;;;;;;;12.48;3.55;;;;;;;-146.25;100.00;52305.34;2079915;28;28115;-70
2023/04/26 01:01:01;;;;;;;11.15;3.80;;;;;;;-146.25;100.00;52295.19;2081108;28;20088;-70
2023/04/26 01:02:06;;;;;;;12.57;3.47;;;;;;;-146.25;100.00;52303.31;2087991;28;29273;-71
2023/04/26 01:03:08;;;;;;;9.65;3.80;;;;;;;-146.25;100.00;52254.66;2087381;28;37435;-71
2023/04/26 01:04:11;;;;;;;10.77;3.35;;;;;;;-146.25;100.00;52283.03;2079694;28;24064;-71
2023/04/26 01:05:13;;;;;;;8.25;3.20;;;;;;;-146.25;100.00;52289.13;2080196;28;30258;-70
2023/04/26 01:06:18;;;;;;;11.00;3.17;;;;;;;-146.25;100.00;52268.84;2079925;28;20733;-71
2023/04/26 01:07:19;;;;;;;12.20;3.63;;;;;;;-146.25;100.00;52272.91;2080566;28;20038;-70
2023/04/26 01:08:25;;;;;;;11.05;3.80;;;;;;;-146.25;100.00;52283.03;2079996;28;29909;-70
2023/04/26 01:09:30;;;;;;;9.30;3.47;;;;;;;-146.25;100.00;52323.59;2081139;28;24361;-70
2023/04/26 01:10:34;;;;;;;10.55;3.20;;;;;;;-146.25;100.00;52325.63;2088571;28;20730;-71
2023/04/26 01:11:37;;;;;;;12.13;3.35;;;;;;;-146.25;100.00;52283.03;2078632;28;34809;-71
2023/04/26 01:12:39;;;;;;;9.85;3.60;;;;;;;-146.25;100.00;52299.25;2080439;28;20953;-70
2023/04/26 01:13:41;;;;;;;12.65;3.33;;;;;;;-146.25;100.00;52293.19;2088257;28;29536;-70
2023/04/26 01:14:44;;;;;;;10.60;3.55;;;;;;;-146.25;100.00;52285.06;2088064;28;23340;-68
2023/04/26 01:15:47;;;;;;;13.38;3.50;;;;;;;-146.25;100.00;52283.03;2087670;28;20853;-70
2023/04/26 01:16:51;;;;;;;8.68;3.10;;;;;;;-146.25;100.00;52295.19;2071934;28;25461;-71
2023/04/26 01:17:53;;;;;;;10.60;2.85;;;;;;;-146.25;100.00;52262.75;2080207;28;28120;-71
2023/04/26 01:18:56;;;;;;;8.63;2.67;;;;;;;-146.25;100.00;52311.44;2079716;28;20160;-70
2023/04/26 01:19:58;;;;;;;10.30;3.03;;;;;;;-146.25;100.00;52329.66;2079978;28;32860;-71
2023/04/26 01:21:00;;;;;;;8.63;2.95;;;;;;;-146.25;100.00;52317.50;2080590;28;20870;-70
2023/04/26 01:22:04;;;;;;;11.80;3.60;;;;;;;-146.25;100.00;52315.47;2088132;28;23053;-71
2023/04/26 01:23:07;;;;;;;12.18;3.38;;;;;;;-146.25;100.00;52307.38;2087699;28;20997;-70
2023/04/26 01:24:12;;;;;;;10.50;3.45;;;;;;;-146.25;100.00;52325.63;2080053;28;27860;-70
2023/04/26 01:25:17;;;;;;;11.15;3.20;;;;;;;-146.25;100.00;52339.81;2079736;28;37282;-71
2023/04/26 01:26:19;;;;;;;9.30;2.72;;;;;;;-146.25;100.00;52283.03;2088595;28;23142;-70
2023/04/26 01:27:21;;;;;;;11.93;3.35;;;;;;;-146.25;100.00;52297.22;2087677;28;21004;-70
2023/04/26 01:28:23;;;;;;;13.15;3.38;;;;;;;-146.25;100.00;52307.38;2079976;28;20046;-70
2023/04/26 01:29:28;;;;;;;11.02;3.05;;;;;;;-146.25;100.00;52319.53;2079781;28;20061;-71
2023/04/26 01:30:30;;;;;;;10.93;2.88;;;;;;;-146.25;100.00;52313.44;2088737;28;20073;-70
2023/04/26 01:31:37;;;;;;;11.02;3.53;;;;;;;-146.25;100.00;52323.59;2080067;28;20846;-70
2023/04/26 01:32:41;;;;;;;10.02;3.15;;;;;;;-146.25;100.00;52311.44;2079792;28;28283;-70
2023/04/26 01:33:43;;;;;;;9.27;3.28;;;;;;;-146.25;100.00;52321.56;2080357;28;27842;-71
2023/04/26 01:34:45;;;;;;;8.75;3.13;;;;;;;-146.25;100.00;52287.09;2079956;28;20990;-70
2023/04/26 01:35:47;;;;;;;7.50;2.90;;;;;;;-146.25;100.00;52307.38;2079599;28;26206;-70
2023/04/26 01:36:49;;;;;;;11.93;3.20;;;;;;;-146.25;100.00;52291.16;2081080;28;28670;-70
2023/04/26 01:37:51;;;;;;;8.00;3.13;;;;;;;-146.25;100.00;52297.22;2087268;28;32019;-70
2023/04/26 01:38:52;;;;;;;12.82;3.25;;;;;;;-146.25;100.00;52303.31;2087906;28;24840;-70
2023/04/26 01:39:55;;;;;;;14.13;4.18;;;;;;;-146.25;100.00;52270.88;2079828;28;20215;-70
2023/04/26 01:40:57;;;;;;;13.00;3.42;;;;;;;-146.25;100.00;52323.59;2071719;28;29290;-71
2023/04/26 01:41:59;;;;;;;10.23;3.10;;;;;;;-146.25;100.00;52309.41;2079633;28;32012;-71
2023/04/26 01:43:04;;;;;;;11.55;3.40;;;;;;;-146.25;100.00;52303.31;2079764;28;32385;-70
2023/04/26 01:44:05;;;;;;;9.50;3.33;;;;;;;-146.25;100.00;52311.44;2079993;28;21079;-70
2023/04/26 01:45:07;;;;;;;12.82;3.58;;;;;;;-146.25;100.00;52311.44;2088834;28;20049;-69
2023/04/26 01:46:28;;;;;;;;;;;;;;;-146.25;100.00;52327.66;2080873;28;20093;-70
2023/04/26 01:47:29;;;;;;;14.60;3.53;;;;;;;-146.25;100.00;52323.59;2080151;28;33994;-70
2023/04/26 01:48:31;;;;;;;14.52;3.65;;;;;;;-146.25;100.00;52315.47;2080035;28;20050;-70
2023/04/26 01:49:34;;;;;;;9.07;3.42;;;;;;;-146.25;100.00;52360.09;2080079;28;20850;-70
2023/04/26 01:50:36;;;;;;;13.30;3.78;;;;;;;-146.25;100.00;52283.03;2080169;28;24997;-70
2023/04/26 01:51:38;;;;;;;12.27;3.60;;;;;;;-146.25;100.00;52311.44;2088099;28;20049;-70
2023/04/26 01:52:41;;;;;;;10.95;3.60;;;;;;;-146.25;100.00;52311.44;2079861;28;20042;-70
2023/04/26 01:53:42;;;;;;;10.98;3.63;;;;;;;-146.25;100.00;52307.38;2079591;28;32005;-70
2023/04/26 01:54:44;;;;;;;11.98;3.60;;;;;;;-146.25;100.00;52309.41;2079315;28;35049;-70
2023/04/26 01:55:46;;;;;;;8.02;3.60;;;;;;;-146.25;100.00;52309.41;2079142;28;35340;-70
2023/04/26 01:56:48;;;;;;;13.93;3.45;;;;;;;-146.25;100.00;52297.22;2079363;28;28269;-70
2023/04/26 01:57:49;;;;;;;11.82;3.75;;;;;;;-146.25;100.00;52329.66;2079965;28;20859;-70
2023/04/26 01:58:51;;;;;;;12.98;3.80;;;;;;;-146.25;100.00;52287.09;2079937;28;20042;-70
2023/04/26 01:59:54;;;;;;;12.85;4.38;;;;;;;-146.25;100.00;52315.47;2079707;28;22758;-71
2023/04/26 02:01:08;;;;;;;7.50;3.45;;;;;;;-146.25;100.00;52313.44;2079013;28;27956;-70
2023/04/26 02:02:10;;;;;;;10.25;3.47;;;;;;;-146.25;100.00;52291.16;2079880;28;20061;-70
2023/04/26 02:03:15;;;;;;;14.20;4.13;;;;;;;-146.25;100.00;52295.19;2079239;28;24194;-71
2023/04/26 02:04:17;;;;;;;9.30;3.38;;;;;;;-146.25;100.00;52337.78;2079666;28;20176;-70
2023/04/26 02:05:19;;;;;;;10.15;3.55;;;;;;;-146.25;100.00;52289.13;2079216;28;27028;-70
2023/04/26 02:06:23;;;;;;;10.02;3.60;;;;;;;-146.25;100.00;52305.34;2070851;28;33332;-70
2023/04/26 02:07:25;;;;;;;11.52;3.28;;;;;;;-146.25;100.00;52358.06;2079515;28;20041;-70
2023/04/26 02:08:30;;;;;;;14.70;4.00;;;;;;;-146.25;100.00;52345.91;2071833;28;20056;-70
2023/04/26 02:09:31;;;;;;;8.75;3.40;;;;;;;-146.25;100.00;52351.97;2079435;28;27278;-70
2023/04/26 02:10:33;;;;;;;17.52;4.10;;;;;;;-146.25;100.00;52333.72;2071038;28;27544;-70
2023/04/26 02:11:37;;;;;;;14.23;3.70;;;;;;;-146.25;100.00;52315.47;2063118;28;35343;-70
2023/04/26 02:12:39;;;;;;;11.75;3.50;;;;;;;-146.25;100.00;52295.19;2079456;28;26267;-70
2023/04/26 02:13:41;;;;;;;10.07;3.58;;;;;;;-146.25;100.00;52323.59;2079347;28;26461;-68
2023/04/26 02:14:42;;;;;;;9.25;3.67;;;;;;;-146.25;100.00;52299.25;2079278;28;28306;-70
2023/04/26 02:15:49;;;;;;;7.60;3.10;;;;;;;-146.25;100.00;52331.69;2071619;28;20168;-70
2023/04/26 02:16:52;;;;;;;12.27;3.60;;;;;;;-146.25;100.00;52313.44;2071615;28;33454;-70
2023/04/26 02:17:54;;;;;;;12.40;3.38;;;;;;;-146.25;100.00;52307.38;2071207;28;33047;-70
2023/04/26 02:18:58;;;;;;;8.85;3.05;;;;;;;-146.25;100.00;52297.22;2071217;28;24868;-70
2023/04/26 02:19:59;;;;;;;12.90;3.60;;;;;;;-146.25;100.00;52283.03;2063745;28;20433;-70
2023/04/26 02:21:01;;;;;;;9.57;3.25;;;;;;;-146.25;100.00;52331.69;2063651;28;27295;-70
2023/04/26 02:22:05;;;;;;;11.68;3.10;;;;;;;-146.25;100.00;52281.00;2071568;28;20939;-70
2023/04/26 02:23:10;;;;;;;11.05;3.90;;;;;;;-146.25;100.00;52331.69;2072079;28;20533;-71
2023/04/26 02:24:12;;;;;;;10.45;3.60;;;;;;;-146.25;100.00;52309.41;2071603;28;20927;-70
2023/04/26 02:25:14;;;;;;;13.70;3.38;;;;;;;-146.25;100.00;52307.38;2071269;28;25955;-70
2023/04/26 02:26:17;;;;;;;10.70;3.03;;;;;;;-146.25;100.00;52274.94;2071232;28;31754;-70
2023/04/26 02:27:18;;;;;;;14.63;3.85;;;;;;;-146.25;100.00;52303.31;2071045;28;24650;-70
2023/04/26 02:28:22;;;;;;;9.45;3.10;;;;;;;-146.25;100.00;52287.09;2070848;28;20121;-70
2023/04/26 02:29:24;;;;;;;11.60;3.10;;;;;;;-146.25;100.00;52295.19;2071296;28;20911;-70
2023/04/26 02:30:43;;;;;;;8.90;3.38;;;;;;;-146.25;100.00;52287.09;2072302;28;24333;-70
2023/04/26 02:31:47;;;;;;;8.68;3.40;;;;;;;-146.25;100.00;52335.75;2071989;28;20030;-70
2023/04/26 02:32:49;;;;;;;9.90;3.15;;;;;;;-146.25;100.00;52323.59;2071701;28;20054;-71
2023/04/26 02:33:51;;;;;;;7.72;3.13;;;;;;;-146.25;100.00;52278.97;2071137;28;21269;-70
2023/04/26 02:34:53;;;;;;;11.65;3.92;;;;;;;-146.25;100.00;52311.44;2071792;28;20046;-71
2023/04/26 02:35:55;;;;;;;8.40;3.42;;;;;;;-146.25;100.00;52331.69;2071233;28;25416;-71
2023/04/26 02:36:56;;;;;;;13.38;4.32;;;;;;;-146.25;100.00;52283.03;2072511;28;20048;-70
2023/04/26 02:37:58;;;;;;;14.27;3.90;;;;;;;-146.25;100.00;52329.66;2071295;28;20205;-70
2023/04/26 02:39:00;;;;;;;11.07;3.25;;;;;;;-146.25;100.00;52299.25;2071539;28;20136;-70
2023/04/26 02:40:04;;;;;;;12.50;4.00;;;;;;;-146.25;100.00;52311.44;2079501;28;20057;-71
2023/04/26 02:41:06;;;;;;;14.63;3.60;;;;;;;-146.25;100.00;52329.66;2079724;28;20124;-71
2023/04/26 02:42:09;;;;;;;13.25;4.13;;;;;;;-146.25;100.00;52285.06;2071386;28;20039;-70
2023/04/26 02:43:13;;;;;;;14.02;3.55;;;;;;;-146.25;100.00;52283.03;2070964;28;20100;-71
2023/04/26 02:44:15;;;;;;;14.75;3.80;;;;;;;-146.25;100.00;52313.44;2071614;28;20046;-71
2023/04/26 02:45:17;;;;;;;11.95;3.60;;;;;;;-146.25;100.00;52295.19;2071539;28;20864;-70
2023/04/26 02:46:21;;;;;;;11.25;3.90;;;;;;;-146.25;100.00;52303.31;2070772;28;25177;-71
2023/04/26 02:47:23;;;;;;;11.88;3.85;;;;;;;-146.25;100.00;52299.25;2077378;28;20935;-71
2023/04/26 02:48:25;;;;;;;9.85;3.47;;;;;;;-146.25;100.00;52327.66;2079567;28;20037;-71
2023/04/26 02:49:27;;;;;;;9.77;3.67;;;;;;;-146.25;100.00;52291.16;2071629;28;20046;-68
2023/04/26 02:50:28;;;;;;;12.75;3.80;;;;;;;-146.25;100.00;52323.59;2071454;28;20236;-70
2023/04/26 02:51:32;;;;;;;9.95;3.50;;;;;;;-146.25;100.00;52315.47;2071517;28;20915;-69
2023/04/26 02:52:35;;;;;;;11.32;4.10;;;;;;;-146.25;100.00;52303.31;2071451;28;20979;-69
2023/04/26 02:53:38;;;;;;;9.93;3.67;;;;;;;-146.25;100.00;52321.56;2079852;28;20045;-69
2023/04/26 02:54:39;;;;;;;8.15;3.28;;;;;;;-146.25;100.00;52291.16;2071260;28;20429;-69
2023/04/26 02:55:41;;;;;;;9.60;3.42;;;;;;;-146.25;100.00;52325.63;2063589;28;20893;-71
2023/04/26 02:56:47;;;;;;;9.68;3.22;;;;;;;-146.25;100.00;52297.22;2062825;28;21767;-70
2023/04/26 02:57:49;;;;;;;12.13;3.80;;;;;;;-146.25;100.00;52283.03;2072262;28;20821;-69
2023/04/26 02:58:51;;;;;;;13.15;3.88;;;;;;;-146.25;100.00;52299.25;2078649;28;22208;-69
2023/04/26 02:59:54;;;;;;;8.38;3.58;;;;;;;-146.25;100.00;52347.91;2071508;28;20940;-70
2023/04/26 03:00:57;;;;;;;7.80;3.22;;;;;;;-146.25;100.00;52325.63;2079057;28;20886;-70
2023/04/26 03:02:01;;;;;;;14.07;3.58;;;;;;;-146.25;100.00;52299.25;2071666;28;20047;-71
2023/04/26 03:03:03;;;;;;;16.33;3.30;;;;;;;-146.25;100.00;52303.31;2062957;28;20046;-71
2023/04/26 03:04:06;;;;;;;13.45;4.20;;;;;;;-146.25;100.00;52319.53;2063284;28;30011;-70
2023/04/26 03:05:09;;;;;;;11.30;4.05;;;;;;;-146.25;100.00;52303.31;2071274;28;20057;-70
2023/04/26 03:06:11;;;;;;;12.48;3.58;;;;;;;-146.25;100.00;52307.38;2071395;28;23745;-70
2023/04/26 03:07:13;;;;;;;13.57;3.35;;;;;;;-146.25;100.00;52319.53;2070786;28;28119;-70
2023/04/26 03:08:14;;;;;;;9.38;3.53;;;;;;;-146.25;100.00;52311.44;2071677;28;20150;-70
2023/04/26 03:09:16;;;;;;;13.70;4.32;;;;;;;-146.25;100.00;52349.94;2071157;28;20042;-70
2023/04/26 03:10:18;;;;;;;13.18;3.95;;;;;;;-146.25;100.00;52274.94;2071663;28;20177;-70
2023/04/26 03:11:20;;;;;;;10.07;3.80;;;;;;;-146.25;100.00;52327.66;2079190;28;20068;-70
2023/04/26 03:12:22;;;;;;;11.10;3.47;;;;;;;-146.25;100.00;52309.41;2071132;28;20045;-70
2023/04/26 03:13:26;;;;;;;11.00;3.78;;;;;;;-146.25;100.00;52331.69;2079088;28;20042;-71
2023/04/26 03:14:29;;;;;;;17.02;3.72;;;;;;;-146.25;100.00;52289.13;2072767;28;20968;-70
2023/04/26 03:15:31;;;;;;;10.00;3.50;;;;;;;-146.25;100.00;52315.47;2072108;28;20942;-70
2023/04/26 03:16:41;;;;;;;11.38;3.53;;;;;;;-146.25;100.00;52283.03;2073338;28;20168;-70
2023/04/26 03:17:43;;;;;;;16.08;3.47;;;;;;;-146.25;100.00;52323.59;2073692;28;20057;-70
2023/04/26 03:18:46;;;;;;;13.40;3.47;;;;;;;-146.25;100.00;52303.31;2072722;28;20053;-70
2023/04/26 03:19:50;;;;;;;8.88;3.42;;;;;;;-146.25;100.00;52311.44;2072622;28;20701;-70
2023/04/26 03:20:52;;;;;;;8.95;3.17;;;;;;;-146.25;100.00;52291.16;2073328;28;20050;-70
2023/04/26 03:21:55;;;;;;;11.15;3.30;;;;;;;-146.25;100.00;52321.56;2072337;28;20177;-71
2023/04/26 03:22:57;;;;;;;7.13;2.95;;;;;;;-146.25;100.00;52313.44;2072698;28;20901;-70
2023/04/26 03:23:59;;;;;;;10.95;3.30;;;;;;;-146.25;100.00;52323.59;2072524;28;20089;-70
2023/04/26 03:25:04;;;;;;;12.57;3.30;;;;;;;-146.25;100.00;52307.38;2072805;28;20850;-70
2023/04/26 03:26:07;;;;;;;14.57;3.50;;;;;;;-146.25;100.00;52258.72;2073248;28;20043;-70
2023/04/26 03:27:08;;;;;;;7.72;3.03;;;;;;;-146.25;100.00;52335.75;2081085;28;21897;-70
2023/04/26 03:28:10;;;;;;;9.57;3.30;;;;;;;-146.25;100.00;52313.44;2072814;28;20050;-71
2023/04/26 03:29:15;;;;;;;9.38;2.88;;;;;;;-146.25;100.00;52272.91;2072538;28;20046;-71
2023/04/26 03:30:17;;;;;;;9.88;3.10;;;;;;;-146.25;100.00;52309.41;2072534;28;21053;-71
2023/04/26 03:31:20;;;;;;;8.93;3.25;;;;;;;-146.25;100.00;52327.66;2072834;28;20895;-69
2023/04/26 03:32:22;;;;;;;13.23;3.35;;;;;;;-146.25;100.00;52311.44;2072648;28;20051;-69
2023/04/26 03:33:24;;;;;;;12.13;3.33;;;;;;;-146.25;100.00;52274.94;2072740;28;20105;-69
2023/04/26 03:34:26;;;;;;;9.18;3.33;;;;;;;-146.25;100.00;52295.19;2072252;28;20034;-71
2023/04/26 03:35:29;;;;;;;13.73;3.40;;;;;;;-146.25;100.00;52283.03;2064926;28;20039;-71
2023/04/26 03:36:31;;;;;;;7.05;3.35;;;;;;;-146.25;100.00;52329.66;2064137;28;20093;-69
2023/04/26 03:37:33;;;;;;;13.02;3.35;;;;;;;-146.25;100.00;52335.75;2073045;28;20035;-69
2023/04/26 03:38:39;;;;;;;10.32;3.38;;;;;;;-146.25;100.00;52301.28;2072514;28;20876;-70
2023/04/26 03:39:41;;;;;;;9.80;3.50;;;;;;;-146.25;100.00;52289.13;2072660;28;20157;-70
2023/04/26 03:40:44;;;;;;;11.38;3.53;;;;;;;-146.25;100.00;52301.28;2072587;28;20059;-70
2023/04/26 03:41:45;;;;;;;9.48;3.35;;;;;;;-146.25;100.00;52297.22;2080680;28;25762;-71
2023/04/26 03:42:48;;;;;;;14.65;3.70;;;;;;;-146.25;100.00;52297.22;2072560;28;20043;-71
2023/04/26 03:43:50;;;;;;;9.18;3.28;;;;;;;-146.25;100.00;52313.44;2072342;28;20054;-73
2023/04/26 03:44:52;;;;;;;12.68;3.85;;;;;;;-146.25;100.00;52289.13;2063524;28;32525;-74
2023/04/26 03:45:55;;;;;;;8.60;3.70;;;;;;;-146.25;100.00;52331.69;2065044;28;20038;-74
2023/04/26 03:46:57;;;;;;;10.60;3.72;;;;;;;-146.25;100.00;52323.59;2074556;28;20097;-77
2023/04/26 03:47:59;;;;;;;10.00;3.67;;;;;;;-146.25;100.00;52315.47;2073627;28;20074;-76
2023/04/26 03:49:01;;;;;;;9.65;4.10;;;;;;;-146.25;100.00;52297.22;2073143;28;20117;-76
2023/04/26 03:50:03;;;;;;;10.13;3.53;;;;;;;-146.25;100.00;52325.63;2081001;28;20046;-78
2023/04/26 03:51:08;;;;;;;12.68;4.40;;;;;;;-146.25;100.00;52329.66;2080580;28;29045;-75
2023/04/26 03:52:10;;;;;;;6.75;3.03;;;;;;;-146.25;100.00;52307.38;2080489;28;20224;-75
2023/04/26 03:53:11;;;;;;;11.52;3.72;;;;;;;-146.25;100.00;52325.63;2080347;28;20127;-74
2023/04/26 03:54:14;;;;;;;12.10;4.00;;;;;;;-146.25;100.00;52295.19;2081048;28;20161;-74
2023/04/26 03:55:16;;;;;;;6.85;3.00;;;;;;;-146.25;100.00;52295.19;2080183;28;20899;-74
2023/04/26 03:56:18;;;;;;;10.35;3.53;;;;;;;-146.25;100.00;52315.47;2081056;28;20164;-74
2023/04/26 03:57:21;;;;;;;10.02;3.22;;;;;;;-146.25;100.00;52295.19;2071969;28;20035;-75
2023/04/26 03:58:25;;;;;;;10.18;3.63;;;;;;;-146.25;100.00;52283.03;2072551;28;20892;-73
2023/04/26 03:59:29;;;;;;;9.70;3.63;;;;;;;-146.25;100.00;52295.19;2072572;28;20046;-73
2023/04/26 04:00:30;;;;;;;9.88;3.35;;;;;;;-146.25;100.00;52311.44;2080570;28;20052;-73
2023/04/26 04:01:32;;;;;;;7.10;3.33;;;;;;;-146.25;100.00;52321.56;2071990;28;22195;-73
2023/04/26 04:02:34;;;;;;;8.45;3.15;;;;;;;-146.25;100.00;52291.16;2072582;28;22208;-73
2023/04/26 04:03:36;;;;;;;8.00;3.33;;;;;;;-146.25;100.00;52291.16;2080293;28;20050;-73
2023/04/26 04:04:41;;;;;;;13.70;3.55;;;;;;;-146.25;100.00;52303.31;2080189;28;24509;-73
2023/04/26 04:05:45;;;;;;;10.27;3.55;;;;;;;-146.25;100.00;52295.19;2080037;28;21008;-72
2023/04/26 04:06:47;;;;;;;7.60;3.55;;;;;;;-146.25;100.00;52274.94;2079999;28;25381;-73
2023/04/26 04:07:49;;;;;;;13.90;3.38;;;;;;;-146.25;100.00;52323.59;2080431;28;20034;-74
2023/04/26 04:08:53;;;;;;;11.07;3.33;;;;;;;-146.25;100.00;52319.53;2072489;28;20153;-73
2023/04/26 04:09:56;;;;;;;6.88;3.10;;;;;;;-146.25;100.00;52343.88;2065033;28;20177;-73
2023/04/26 04:10:58;;;;;;;11.82;3.50;;;;;;;-146.25;100.00;52311.44;2072460;28;20047;-73
2023/04/26 04:12:00;;;;;;;11.10;3.38;;;;;;;-146.25;100.00;52283.03;2080322;28;20046;-72
2023/04/26 04:13:02;;;;;;;6.55;2.92;;;;;;;-146.25;100.00;52268.84;2080928;28;20038;-70
2023/04/26 04:14:07;;;;;;;10.63;3.60;;;;;;;-146.25;100.00;52299.25;2080078;28;20093;-71
2023/04/26 04:15:09;;;;;;;8.63;3.30;;;;;;;-146.25;100.00;52299.25;2080558;28;20989;-72
2023/04/26 04:16:14;;;;;;;13.45;3.70;;;;;;;-146.25;100.00;52327.66;2072228;28;20097;-71
2023/04/26 04:17:16;;;;;;;8.73;3.67;;;;;;;-146.25;100.00;52297.22;2076993;28;26100;-72
2023/04/26 04:18:18;;;;;;;14.38;4.13;;;;;;;-146.25;100.00;52311.44;2080429;28;20054;-73
2023/04/26 04:19:20;;;;;;;12.13;3.85;;;;;;;-146.25;100.00;52274.94;2080506;28;20050;-72
2023/04/26 04:20:21;;;;;;;9.35;3.58;;;;;;;-146.25;100.00;52323.59;2072156;28;20042;-72
2023/04/26 04:21:26;;;;;;;10.48;4.13;;;;;;;-146.25;100.00;52327.66;2081083;28;20033;-72
2023/04/26 04:22:31;;;;;;;11.35;3.50;;;;;;;-146.25;100.00;52293.19;2080355;28;20050;-73
2023/04/26 04:23:33;;;;;;;9.35;4.18;;;;;;;-146.25;100.00;52285.06;2072622;28;20104;-75
2023/04/26 04:24:37;;;;;;;13.93;4.03;;;;;;;-146.25;100.00;52262.75;2080930;28;20049;-75
2023/04/26 04:25:40;;;;;;;9.48;4.15;;;;;;;-146.25;100.00;52291.16;2079897;28;20240;-75
2023/04/26 04:26:45;;;;;;;13.45;4.20;;;;;;;-146.25;100.00;52283.03;2072622;28;20046;-76
2023/04/26 04:27:48;;;;;;;13.23;3.78;;;;;;;-146.25;100.00;52307.38;2072361;28;20042;-77
2023/04/26 04:28:50;;;;;;;10.25;3.75;;;;;;;-146.25;100.00;52291.16;2080322;28;20937;-76
2023/04/26 04:29:54;;;;;;;11.00;3.45;;;;;;;-146.25;100.00;52339.81;2080682;28;20045;-75
2023/04/26 04:30:56;;;;;;;13.45;4.38;;;;;;;-146.25;100.00;52325.63;2080292;28;20224;-75
2023/04/26 04:31:57;;;;;;;13.57;4.22;;;;;;;-146.25;100.00;52331.69;2080543;28;20029;-75
2023/04/26 04:32:59;;;;;;;11.35;3.65;;;;;;;-146.25;100.00;52293.19;2071575;28;20042;-75
2023/04/26 04:34:01;;;;;;;6.78;3.08;;;;;;;-146.25;100.00;52362.13;2071990;28;20952;-74
2023/04/26 04:35:06;;;;;;;12.27;3.45;;;;;;;-146.25;100.00;52311.44;2072627;28;20046;-75
2023/04/26 04:36:08;;;;;;;7.53;3.60;;;;;;;-146.25;100.00;52323.59;2080260;28;20065;-74
2023/04/26 04:37:13;;;;;;;13.38;3.60;;;;;;;-146.25;100.00;52335.75;2072142;28;20069;-74
2023/04/26 04:38:15;;;;;;;9.48;3.40;;;;;;;-146.25;100.00;52339.81;2080500;28;20049;-74
2023/04/26 04:39:17;;;;;;;8.85;3.20;;;;;;;-146.25;100.00;52311.44;2088255;28;20050;-74
2023/04/26 04:40:20;;;;;;;10.18;2.95;;;;;;;-146.25;100.00;52299.25;2072315;28;20853;-73
2023/04/26 04:41:22;;;;;;;10.18;2.92;;;;;;;-146.25;100.00;52315.47;2072007;28;20046;-74
2023/04/26 04:42:26;;;;;;;8.25;2.60;;;;;;;-146.25;100.00;52319.53;2080412;28;20042;-73
2023/04/26 04:43:29;;;;;;;6.72;2.20;;;;;;;-146.25;100.00;52313.44;2072599;28;20113;-74